createdAt,value
2023-03-03T00:00:30.887Z,2.44
2023-03-03T00:02:59.990Z,2.46
2023-03-03T00:05:28.671Z,2.47
2023-03-03T00:07:56.389Z,2.53
2023-03-03T00:10:24.061Z,2.61
2023-03-03T00:12:51.731Z,2.74
2023-03-03T00:15:21.581Z,2.78
2023-03-03T00:17:51.333Z,2.76
2023-03-03T00:20:38.900Z,2.79
2023-03-03T00:23:14.740Z,2.73
2023-03-03T00:25:46.280Z,2.67
2023-03-03T00:28:29.345Z,2.60
2023-03-03T00:30:59.980Z,2.49
2023-03-03T00:33:28.795Z,2.50
2023-03-03T00:35:57.712Z,2.46
2023-03-03T00:38:26.284Z,2.44
2023-03-03T00:40:53.937Z,2.47
2023-03-03T00:43:25.953Z,2.45
2023-03-03T00:45:56.716Z,2.42
2023-03-03T00:48:30.920Z,2.53
2023-03-03T00:50:59.966Z,2.53
2023-03-03T00:53:29.253Z,2.52
2023-03-03T00:55:57.642Z,2.50
2023-03-03T00:58:25.545Z,2.52
2023-03-03T01:00:54.784Z,2.56
2023-03-03T01:03:27.529Z,2.58
2023-03-03T01:05:55.632Z,2.61
2023-03-03T01:08:23.431Z,2.58
2023-03-03T01:10:57.280Z,2.59
2023-03-03T01:13:30.487Z,2.57
2023-03-03T01:15:59.262Z,2.55
2023-03-03T01:18:27.281Z,2.53
2023-03-03T01:20:55.348Z,2.50
2023-03-03T01:23:28.773Z,2.50
2023-03-03T01:25:58.328Z,2.46
2023-03-03T01:28:26.052Z,2.33
2023-03-03T01:30:54.307Z,2.25
2023-03-03T01:33:22.005Z,2.24
2023-03-03T01:35:50.837Z,2.22
2023-03-03T01:38:20.129Z,2.19
2023-03-03T01:40:55.940Z,2.13
2023-03-03T01:43:29.011Z,2.10
2023-03-03T01:45:57.286Z,2.05
2023-03-03T01:48:31.046Z,2.04
2023-03-03T01:51:02.949Z,1.99
2023-03-03T01:53:34.464Z,1.93
2023-03-03T01:56:02.110Z,1.92
2023-03-03T01:58:32.483Z,1.84
2023-03-03T02:01:05.993Z,1.78
2023-03-03T02:03:33.589Z,1.76
2023-03-03T02:06:04.921Z,1.73
2023-03-03T02:08:38.624Z,1.83
2023-03-03T02:11:06.247Z,1.95
2023-03-03T02:13:34.571Z,2.02
2023-03-03T02:16:02.288Z,2.11
2023-03-03T02:18:33.028Z,2.18
2023-03-03T02:21:24.173Z,2.04
2023-03-03T02:24:05.544Z,2.08
2023-03-03T02:26:37.217Z,2.02
2023-03-03T02:29:08.536Z,1.97
2023-03-03T02:31:37.663Z,1.98
2023-03-03T02:34:06.258Z,1.95
2023-03-03T02:36:36.358Z,1.97
2023-03-03T02:39:11.334Z,1.99
2023-03-03T02:41:51.532Z,1.92
2023-03-03T02:44:21.016Z,1.98
2023-03-03T02:46:49.721Z,2.00
2023-03-03T02:49:20.197Z,1.99
2023-03-03T02:51:48.520Z,2.03
2023-03-03T02:54:17.578Z,1.97
2023-03-03T02:56:45.328Z,2.02
2023-03-03T02:59:13.452Z,2.06
2023-03-03T03:01:47.092Z,2.06
2023-03-03T03:04:25.325Z,2.03
2023-03-03T03:06:54.369Z,2.03
2023-03-03T03:09:24.214Z,2.10
2023-03-03T03:17:01.780Z,2.15
2023-03-03T03:19:32.288Z,2.06
2023-03-03T03:22:02.576Z,2.03
2023-03-03T03:24:32.406Z,1.98
2023-03-03T03:27:04.328Z,1.87
2023-03-03T03:29:33.303Z,1.92
2023-03-03T03:32:01.239Z,1.87
2023-03-03T03:34:29.269Z,1.73
2023-03-03T03:37:01.900Z,1.62
2023-03-03T03:39:50.099Z,1.69
2023-03-03T03:42:19.345Z,1.68
2023-03-03T03:44:48.217Z,1.79
2023-03-03T03:47:18.053Z,1.79
2023-03-03T03:49:46.657Z,1.72
2023-03-03T03:52:14.617Z,1.74
2023-03-03T03:54:43.095Z,1.73
2023-03-03T03:57:10.728Z,1.72
2023-03-03T03:59:58.227Z,1.73
2023-03-03T04:02:27.579Z,1.69
2023-03-03T04:04:55.320Z,1.71
2023-03-03T04:07:22.883Z,1.90
2023-03-03T04:09:52.388Z,2.06
2023-03-03T04:12:20.420Z,2.03
2023-03-03T04:14:48.733Z,2.04
2023-03-03T04:17:18.089Z,2.03
2023-03-03T04:19:45.941Z,2.05
2023-03-03T04:22:15.479Z,2.23
2023-03-03T04:24:44.856Z,2.23
2023-03-03T04:27:13.556Z,2.22
2023-03-03T04:29:42.339Z,2.12
2023-03-03T04:32:10.917Z,2.19
2023-03-03T04:34:39.689Z,2.15
2023-03-03T04:37:07.384Z,2.13
2023-03-03T04:39:36.847Z,2.17
2023-03-03T04:42:04.938Z,2.23
2023-03-03T04:44:32.799Z,2.33
2023-03-03T04:47:00.488Z,2.44
2023-03-03T04:49:28.974Z,2.41
2023-03-03T04:51:57.351Z,2.62
2023-03-03T04:54:25.573Z,2.70
2023-03-03T04:56:53.233Z,3.02
2023-03-03T04:59:21.160Z,3.21
2023-03-03T05:01:51.253Z,3.33
2023-03-03T05:04:21.733Z,3.34
2023-03-03T05:06:49.439Z,3.62
2023-03-03T05:09:17.456Z,3.61
2023-03-03T05:11:45.424Z,3.27
2023-03-03T05:14:13.898Z,3.42
2023-03-03T05:16:42.282Z,3.48
2023-03-03T05:19:10.149Z,3.27
2023-03-03T05:21:42.871Z,3.61
2023-03-03T05:24:25.933Z,3.70
2023-03-03T05:26:54.033Z,3.53
2023-03-03T05:29:21.979Z,3.79
2023-03-03T05:31:49.995Z,3.95
2023-03-03T05:34:17.730Z,3.91
2023-03-03T05:36:45.398Z,3.94
2023-03-03T05:39:14.204Z,3.99
2023-03-03T05:41:42.298Z,3.97
2023-03-03T05:44:11.876Z,4.16
2023-03-03T05:46:39.507Z,4.37
2023-03-03T05:49:10.668Z,4.68
2023-03-03T05:51:38.584Z,4.50
2023-03-03T05:54:06.372Z,4.83
2023-03-03T05:56:34.060Z,4.88
2023-03-03T05:59:04.645Z,4.97
2023-03-03T06:01:33.060Z,4.45
2023-03-03T06:04:00.798Z,4.95
2023-03-03T06:06:28.606Z,4.70
2023-03-03T06:08:57.358Z,5.04
2023-03-03T06:11:27.202Z,5.31
2023-03-03T06:14:06.566Z,5.55
2023-03-03T06:16:35.396Z,5.37
2023-03-03T06:19:03.757Z,5.29
2023-03-03T06:21:31.591Z,5.39
2023-03-03T06:23:59.504Z,5.31
2023-03-03T06:26:27.397Z,5.21
2023-03-03T06:28:57.111Z,5.22
2023-03-03T06:31:25.222Z,4.61
2023-03-03T06:33:53.831Z,4.64
2023-03-03T06:36:21.718Z,4.95
2023-03-03T06:38:49.540Z,4.91
2023-03-03T06:41:17.363Z,5.09
2023-03-03T06:43:45.073Z,5.32
2023-03-03T06:46:13.310Z,5.28
2023-03-03T06:48:42.825Z,4.97
2023-03-03T06:51:23.559Z,5.26
2023-03-03T06:53:53.237Z,5.40
2023-03-03T06:56:22.263Z,5.42
2023-03-03T06:58:50.109Z,5.59
2023-03-03T07:01:17.955Z,5.63
2023-03-03T07:03:46.184Z,5.48
2023-03-03T07:06:23.209Z,5.78
2023-03-03T07:08:53.006Z,6.05
2023-03-03T07:11:23.069Z,6.12
2023-03-03T07:13:52.388Z,6.21
2023-03-03T07:16:23.197Z,6.27
2023-03-03T07:19:01.849Z,5.91
2023-03-03T07:21:39.100Z,5.98
2023-03-03T07:24:19.468Z,6.15
2023-03-03T07:26:47.377Z,5.98
2023-03-03T07:29:28.637Z,6.13
2023-03-03T07:32:01.394Z,6.11
2023-03-03T07:34:40.782Z,6.40
2023-03-03T07:37:31.037Z,6.40
2023-03-03T07:39:59.570Z,6.20
2023-03-03T07:42:40.310Z,6.62
2023-03-03T07:45:31.563Z,6.32
2023-03-03T07:48:31.424Z,6.63
2023-03-03T07:51:01.078Z,6.77
2023-03-03T07:53:35.576Z,6.94
2023-03-03T07:56:04.118Z,6.28
2023-03-03T07:58:41.582Z,6.66
2023-03-03T08:01:40.047Z,7.03
2023-03-03T08:04:21.194Z,6.78
2023-03-03T08:06:59.010Z,6.36
2023-03-03T08:09:39.781Z,6.21
2023-03-03T08:12:09.530Z,6.38
2023-03-03T08:14:38.791Z,6.56
2023-03-03T08:17:24.159Z,6.71
2023-03-03T08:19:53.235Z,6.35
2023-03-03T08:22:32.377Z,6.74
2023-03-03T08:25:00.942Z,6.69
2023-03-03T08:27:29.388Z,6.65
2023-03-03T08:29:58.171Z,6.79
2023-03-03T08:32:26.434Z,7.10
2023-03-03T08:35:00.034Z,7.04
2023-03-03T08:37:28.116Z,6.86
2023-03-03T08:39:56.269Z,7.10
2023-03-03T08:42:24.365Z,6.97
2023-03-03T08:44:52.170Z,6.91
2023-03-03T08:47:20.338Z,6.39
2023-03-03T08:49:50.607Z,6.75
2023-03-03T08:52:19.669Z,6.67
2023-03-03T08:54:49.683Z,7.04
2023-03-03T08:57:23.330Z,6.69
2023-03-03T08:59:54.596Z,6.96
2023-03-03T09:02:29.827Z,7.21
2023-03-03T09:04:58.395Z,7.22
2023-03-03T09:07:26.364Z,7.39
2023-03-03T09:09:58.390Z,7.29
2023-03-03T09:12:34.487Z,7.35
2023-03-03T09:15:36.829Z,7.31
2023-03-03T09:18:26.536Z,7.49
2023-03-03T09:20:59.202Z,7.52
2023-03-03T09:23:33.980Z,7.58
2023-03-03T09:26:31.717Z,7.56
2023-03-03T09:29:14.923Z,7.70
2023-03-03T09:31:49.553Z,7.80
2023-03-03T09:34:27.772Z,7.55
2023-03-03T09:36:55.920Z,8.09
2023-03-03T09:39:25.969Z,8.23
2023-03-03T09:42:04.772Z,8.14
2023-03-03T09:44:54.681Z,8.26
2023-03-03T09:47:25.567Z,8.06
2023-03-03T09:50:00.198Z,8.22
2023-03-03T09:52:54.636Z,7.89
2023-03-03T09:56:08.896Z,8.01
2023-03-03T09:58:50.572Z,8.27
2023-03-03T10:01:27.329Z,8.40
2023-03-03T10:03:59.132Z,8.07
2023-03-03T10:06:40.193Z,7.92
2023-03-03T10:09:33.256Z,7.56
2023-03-03T10:12:22.909Z,8.08
2023-03-03T10:14:54.009Z,8.36
2023-03-03T10:17:23.578Z,8.33
2023-03-03T10:19:54.240Z,8.50
2023-03-03T10:22:25.409Z,8.46
2023-03-03T10:25:11.532Z,8.57
2023-03-03T10:28:20.231Z,8.09
2023-03-03T10:31:28.810Z,7.71
2023-03-03T10:34:02.698Z,8.32
2023-03-03T10:36:49.871Z,8.49
2023-03-03T10:39:40.089Z,8.48
2023-03-03T10:42:23.956Z,8.56
2023-03-03T10:45:21.845Z,8.76
2023-03-03T10:48:10.526Z,8.72
2023-03-03T10:50:53.669Z,8.65
2023-03-03T10:53:43.145Z,8.36
2023-03-03T10:56:52.933Z,8.23
2023-03-03T10:59:34.075Z,8.07
2023-03-03T11:02:28.023Z,8.33
2023-03-03T11:05:25.000Z,8.63
2023-03-03T11:07:59.494Z,7.98
2023-03-03T11:10:52.756Z,7.99
2023-03-03T11:13:47.425Z,8.03
2023-03-03T11:17:04.350Z,8.18
2023-03-03T11:19:34.608Z,8.32
2023-03-03T11:22:39.158Z,7.69
2023-03-03T11:25:26.809Z,8.10
2023-03-03T11:28:47.438Z,8.11
2023-03-03T11:40:57.550Z,8.08
2023-03-03T11:43:52.013Z,7.66
2023-03-03T11:46:44.075Z,8.09
2023-03-03T11:49:22.974Z,8.29
2023-03-03T11:52:00.584Z,8.00
2023-03-03T11:54:33.421Z,8.15
2023-03-03T11:57:19.844Z,8.10
2023-03-03T12:00:00.219Z,8.22
2023-03-03T12:02:32.377Z,8.15
2023-03-03T12:05:09.320Z,8.33
2023-03-03T12:08:08.150Z,8.10
2023-03-03T12:11:09.824Z,8.07
2023-03-03T12:14:07.296Z,8.23
2023-03-03T12:16:57.834Z,8.54
2023-03-03T12:19:32.305Z,8.04
2023-03-03T12:22:12.373Z,8.33
2023-03-03T12:24:56.529Z,8.43
2023-03-03T12:27:33.799Z,8.44
2023-03-03T12:30:31.715Z,7.85
2023-03-03T12:33:29.089Z,8.19
2023-03-03T12:36:12.067Z,7.96
2023-03-03T12:39:04.468Z,7.86
2023-03-03T12:41:38.420Z,8.07
2023-03-03T12:44:19.247Z,8.25
2023-03-03T12:47:01.354Z,8.01
2023-03-03T12:49:44.096Z,7.92
2023-03-03T12:52:22.500Z,7.91
2023-03-03T12:55:09.032Z,8.06
2023-03-03T12:57:51.124Z,7.68
2023-03-03T13:00:39.744Z,7.65
2023-03-03T13:03:30.337Z,7.80
2023-03-03T13:06:30.236Z,7.83
2023-03-03T13:09:20.038Z,7.93
2023-03-03T13:12:01.157Z,7.91
2023-03-03T13:14:52.968Z,7.89
2023-03-03T13:17:42.754Z,7.71
2023-03-03T13:20:15.533Z,7.91
2023-03-03T13:22:54.170Z,7.80
2023-03-03T13:26:14.721Z,7.57
2023-03-03T13:29:07.409Z,7.52
2023-03-03T13:31:44.006Z,7.48
2023-03-03T13:34:37.432Z,7.71
2023-03-03T13:37:11.100Z,7.71
2023-03-03T13:40:13.928Z,7.36
2023-03-03T13:42:52.388Z,7.45
2023-03-03T13:45:36.635Z,7.40
2023-03-03T13:48:22.974Z,7.54
2023-03-03T13:50:56.847Z,7.56
2023-03-03T13:53:36.419Z,7.48
2023-03-03T13:56:41.042Z,7.75
2023-03-03T13:59:35.864Z,7.57
2023-03-03T14:02:26.335Z,7.62
2023-03-03T14:05:18.674Z,7.68
2023-03-03T14:08:28.793Z,7.32
2023-03-03T14:11:12.392Z,7.31
2023-03-03T14:14:12.608Z,7.35
2023-03-03T14:17:01.411Z,7.23
2023-03-03T14:19:47.352Z,7.13
2023-03-03T14:22:33.247Z,7.06
2023-03-03T14:25:03.980Z,7.01
2023-03-03T14:27:47.070Z,6.86
2023-03-03T14:30:34.108Z,6.70
2023-03-03T14:33:01.794Z,7.14
2023-03-03T14:35:32.845Z,7.16
2023-03-03T14:38:17.196Z,6.97
2023-03-03T14:40:47.573Z,6.89
2023-03-03T14:43:26.422Z,6.87
2023-03-03T14:45:54.591Z,6.90
2023-03-03T14:48:32.766Z,6.89
2023-03-03T14:51:23.648Z,6.84
2023-03-03T14:53:51.830Z,7.01
2023-03-03T14:56:30.833Z,6.77
2023-03-03T14:59:25.927Z,6.68
2023-03-03T15:02:18.426Z,6.91
2023-03-03T15:04:47.138Z,6.68
2023-03-03T15:07:34.273Z,6.79
2023-03-03T15:10:07.850Z,6.69
2023-03-03T15:12:42.589Z,6.75
2023-03-03T15:15:11.591Z,6.58
2023-03-03T15:17:41.679Z,6.53
2023-03-03T15:20:35.076Z,6.63
2023-03-03T15:23:06.022Z,6.63
2023-03-03T15:25:53.208Z,6.70
2023-03-03T15:28:25.069Z,6.62
2023-03-03T15:31:08.194Z,6.51
2023-03-03T15:34:03.995Z,6.67
2023-03-03T15:36:51.969Z,6.54
2023-03-03T15:39:53.315Z,6.47
2023-03-03T15:42:35.920Z,6.43
2023-03-03T15:45:15.989Z,6.53
2023-03-03T15:47:49.718Z,6.71
2023-03-03T15:50:51.813Z,6.54
2023-03-03T15:53:58.350Z,6.59
2023-03-03T15:56:35.904Z,6.34
2023-03-03T15:59:28.788Z,6.41
2023-03-03T16:02:17.772Z,6.48
2023-03-03T16:08:14.009Z,6.65
2023-03-03T16:10:52.691Z,6.75
2023-03-03T16:13:49.090Z,6.48
2023-03-03T16:16:30.400Z,6.54
2023-03-03T16:19:22.438Z,6.24
2023-03-03T16:22:28.972Z,6.58
2023-03-03T16:25:34.653Z,6.58
2023-03-03T16:28:17.895Z,6.62
2023-03-03T16:31:10.879Z,6.60
2023-03-03T16:34:10.376Z,6.44
2023-03-03T16:36:55.437Z,6.63
2023-03-03T16:39:30.303Z,6.73
2023-03-03T16:42:05.540Z,6.68
2023-03-03T16:44:59.582Z,6.60
2023-03-03T16:47:49.048Z,6.72
2023-03-03T16:50:38.208Z,6.42
2023-03-03T16:53:27.857Z,6.51
2023-03-03T16:56:07.244Z,6.58
2023-03-03T16:58:53.311Z,6.56
2023-03-03T17:01:29.035Z,6.60
2023-03-03T17:04:01.624Z,6.59
2023-03-03T17:06:34.315Z,6.56
2023-03-03T17:09:02.094Z,6.62
2023-03-03T17:11:38.922Z,6.68
2023-03-03T17:14:25.089Z,6.75
2023-03-03T17:17:16.385Z,6.61
2023-03-03T17:19:49.657Z,6.57
2023-03-03T17:22:37.753Z,6.61
2023-03-03T17:25:17.757Z,6.40
2023-03-03T17:27:59.327Z,6.70
2023-03-03T17:30:34.247Z,6.52
2023-03-03T17:33:20.494Z,6.49
2023-03-03T17:36:31.363Z,6.43
2023-03-03T17:39:27.146Z,6.68
2023-03-03T17:41:58.861Z,6.49
2023-03-03T17:44:54.778Z,6.61
2023-03-03T17:47:34.334Z,6.48
2023-03-03T17:50:21.265Z,6.53
2023-03-03T17:53:13.417Z,6.57
2023-03-03T17:56:03.240Z,6.52
2023-03-03T17:58:50.249Z,6.60
2023-03-03T18:01:56.564Z,6.40
2023-03-03T18:04:43.653Z,6.49
2023-03-03T18:07:14.519Z,6.67
2023-03-03T18:09:45.490Z,6.62
2023-03-03T18:12:19.158Z,6.61
2023-03-03T18:15:03.138Z,6.71
2023-03-03T18:17:37.621Z,6.37
2023-03-03T18:20:30.525Z,6.50
2023-03-03T18:22:58.810Z,6.65
2023-03-03T18:25:55.275Z,6.62
2023-03-03T18:28:23.920Z,6.57
2023-03-03T18:31:03.148Z,6.54
2023-03-03T18:33:35.055Z,6.59
2023-03-03T18:36:29.445Z,6.58
2023-03-03T18:38:57.865Z,6.60
2023-03-03T18:41:34.501Z,6.50
2023-03-03T18:44:12.646Z,6.73
2023-03-03T18:46:43.413Z,6.69
2023-03-03T18:49:12.763Z,6.66
2023-03-03T18:51:42.643Z,6.57
2023-03-03T18:54:13.852Z,6.59
2023-03-03T18:56:43.625Z,6.59
2023-03-03T18:59:31.376Z,6.53
2023-03-03T19:02:18.884Z,6.76
2023-03-03T19:05:07.609Z,6.50
2023-03-03T19:07:41.600Z,6.77
2023-03-03T19:10:21.686Z,6.61
2023-03-03T19:12:49.467Z,6.66
2023-03-03T19:15:31.143Z,6.84
2023-03-03T19:18:02.201Z,6.64
2023-03-03T19:21:03.415Z,6.20
2023-03-03T19:23:52.792Z,6.40
2023-03-03T19:26:26.454Z,6.29
2023-03-03T19:29:09.561Z,6.57
2023-03-03T19:32:06.539Z,6.46
2023-03-03T19:34:41.654Z,6.51
2023-03-03T19:37:38.663Z,6.67
2023-03-03T19:40:35.102Z,6.53
2023-03-03T19:43:39.796Z,6.49
2023-03-03T19:46:32.085Z,6.49
2023-03-03T19:49:27.428Z,6.58
2023-03-03T19:52:26.157Z,6.63
2023-03-03T19:55:13.317Z,6.48
2023-03-03T19:58:01.864Z,6.58
2023-03-03T20:00:38.321Z,6.76
2023-03-03T20:03:39.738Z,6.86
2023-03-03T20:06:29.349Z,6.61
2023-03-03T20:09:03.752Z,6.54
2023-03-03T20:11:59.427Z,6.48
2023-03-03T20:14:36.931Z,6.55
2023-03-03T20:17:16.896Z,6.41
2023-03-03T20:19:55.202Z,6.43
2023-03-03T20:22:44.396Z,6.51
2023-03-03T20:25:15.706Z,6.20
2023-03-03T20:28:05.686Z,6.51
2023-03-03T20:30:56.297Z,6.23
2023-03-03T20:33:39.176Z,6.34
2023-03-03T20:36:17.099Z,6.27
2023-03-03T20:38:58.762Z,6.18
2023-03-03T20:41:41.573Z,6.31
2023-03-03T20:44:15.307Z,5.98
2023-03-03T20:47:03.976Z,6.26
2023-03-03T20:49:53.201Z,6.31
2023-03-03T20:52:39.480Z,6.13
2023-03-03T20:55:31.683Z,6.11
2023-03-03T20:58:18.028Z,6.25
2023-03-03T21:01:09.612Z,6.07
2023-03-03T21:03:39.255Z,6.06
2023-03-03T21:06:09.547Z,6.17
2023-03-03T21:08:42.053Z,6.27
2023-03-03T21:11:17.601Z,6.03
2023-03-03T21:13:54.405Z,6.20
2023-03-03T21:16:22.932Z,6.24
2023-03-03T21:19:10.700Z,6.16
2023-03-03T21:21:42.829Z,6.21
2023-03-03T21:24:13.303Z,6.12
2023-03-03T21:26:50.508Z,6.29
2023-03-03T21:29:30.288Z,6.09
2023-03-03T21:32:02.503Z,6.17
2023-03-03T21:34:38.662Z,6.09
2023-03-03T21:37:10.842Z,6.14
2023-03-03T21:39:44.873Z,6.22
2023-03-03T21:42:16.754Z,6.30
2023-03-03T21:44:51.795Z,6.04
2023-03-03T21:47:23.356Z,6.10
2023-03-03T21:50:00.380Z,6.37
2023-03-03T21:52:28.112Z,6.32
2023-03-03T21:54:56.152Z,6.36
2023-03-03T21:57:26.967Z,6.35
2023-03-03T21:59:54.871Z,6.28
2023-03-03T22:02:22.540Z,6.34
2023-03-03T22:04:50.735Z,6.25
2023-03-03T22:07:18.586Z,6.27
2023-03-03T22:09:47.889Z,6.07
2023-03-03T22:12:15.711Z,5.98
2023-03-03T22:14:43.379Z,6.06
2023-03-03T22:17:12.141Z,6.31
2023-03-03T22:19:39.967Z,6.16
2023-03-03T22:22:07.587Z,6.14
2023-03-03T22:24:35.340Z,6.06
2023-03-03T22:27:03.625Z,6.19
2023-03-03T22:29:31.761Z,6.02
2023-03-03T22:32:02.779Z,6.15
2023-03-03T22:34:30.716Z,6.10
2023-03-03T22:36:58.452Z,6.35
2023-03-03T22:39:29.683Z,6.26
2023-03-03T22:41:57.678Z,6.17
2023-03-03T22:44:25.282Z,5.88
2023-03-03T22:46:53.140Z,6.32
2023-03-03T22:49:23.486Z,6.30
2023-03-03T22:51:52.615Z,6.21
2023-03-03T22:54:21.866Z,6.32
2023-03-03T22:56:49.873Z,6.36
2023-03-03T22:59:17.682Z,6.43
2023-03-03T23:01:48.250Z,6.36
2023-03-03T23:04:16.855Z,6.37
2023-03-03T23:06:47.245Z,6.27
2023-03-03T23:09:15.454Z,6.54
2023-03-03T23:11:44.252Z,6.31
2023-03-03T23:14:12.171Z,6.28
2023-03-03T23:16:40.069Z,6.37
2023-03-03T23:19:08.919Z,5.98
2023-03-03T23:21:37.761Z,5.98
2023-03-03T23:24:05.816Z,5.89
2023-03-03T23:26:34.724Z,6.01
2023-03-03T23:29:02.409Z,6.07
2023-03-03T23:31:30.735Z,5.99
2023-03-03T23:33:59.599Z,6.10
2023-03-03T23:36:27.193Z,6.06
2023-03-03T23:38:55.184Z,6.05
2023-03-03T23:41:23.160Z,6.29
2023-03-03T23:43:50.846Z,6.17
2023-03-03T23:46:24.278Z,6.11
2023-03-03T23:48:52.575Z,6.24
2023-03-03T23:51:20.235Z,5.86
2023-03-03T23:53:53.721Z,5.99
2023-03-03T23:56:21.391Z,6.10
2023-03-03T23:58:49.064Z,5.86
